sensor_id;sensor_type;location;lat;lon;timestamp;temperature;humidity
70421;SHT31;57848;51.938;15.520;2023-04-01T00:01:57;9.29;94.18
70421;SHT31;57848;51.938;15.520;2023-04-01T00:04:23;9.31;94.31
70421;SHT31;57848;51.938;15.520;2023-04-01T00:06:48;9.34;94.00
70421;SHT31;57848;51.938;15.520;2023-04-01T00:09:13;9.35;94.09
70421;SHT31;57848;51.938;15.520;2023-04-01T00:11:39;9.32;94.81
70421;SHT31;57848;51.938;15.520;2023-04-01T00:14:06;9.35;93.95
70421;SHT31;57848;51.938;15.520;2023-04-01T00:16:31;9.26;94.61
70421;SHT31;57848;51.938;15.520;2023-04-01T00:18:57;9.25;94.61
70421;SHT31;57848;51.938;15.520;2023-04-01T00:21:22;9.21;95.08
70421;SHT31;57848;51.938;15.520;2023-04-01T00:23:49;9.25;95.13
70421;SHT31;57848;51.938;15.520;2023-04-01T00:26:15;9.32;94.66
70421;SHT31;57848;51.938;15.520;2023-04-01T00:28:44;9.31;94.81
70421;SHT31;57848;51.938;15.520;2023-04-01T00:31:11;9.40;94.63
70421;SHT31;57848;51.938;15.520;2023-04-01T00:33:37;9.31;94.99
70421;SHT31;57848;51.938;15.520;2023-04-01T00:38:33;9.28;95.32
70421;SHT31;57848;51.938;15.520;2023-04-01T00:40:59;9.28;95.35
70421;SHT31;57848;51.938;15.520;2023-04-01T00:43:25;9.32;95.21
70421;SHT31;57848;51.938;15.520;2023-04-01T00:45:51;9.35;95.35
70421;SHT31;57848;51.938;15.520;2023-04-01T00:50:59;9.36;95.47
70421;SHT31;57848;51.938;15.520;2023-04-01T00:53:26;9.35;95.34
70421;SHT31;57848;51.938;15.520;2023-04-01T00:56:24;9.34;95.35
70421;SHT31;57848;51.938;15.520;2023-04-01T00:59:00;9.24;95.10
70421;SHT31;57848;51.938;15.520;2023-04-01T01:01:28;9.25;95.57
70421;SHT31;57848;51.938;15.520;2023-04-01T01:03:54;9.29;95.80
70421;SHT31;57848;51.938;15.520;2023-04-01T01:14:37;9.29;95.65
70421;SHT31;57848;51.938;15.520;2023-04-01T01:17:39;9.24;95.64
70421;SHT31;57848;51.938;15.520;2023-04-01T01:20:38;9.28;95.55
70421;SHT31;57848;51.938;15.520;2023-04-01T01:23:32;9.32;95.67
70421;SHT31;57848;51.938;15.520;2023-04-01T01:29:25;9.28;96.06
70421;SHT31;57848;51.938;15.520;2023-04-01T01:32:19;9.28;95.78
70421;SHT31;57848;51.938;15.520;2023-04-01T01:35:03;9.32;96.24
70421;SHT31;57848;51.938;15.520;2023-04-01T01:37:30;9.31;96.01
70421;SHT31;57848;51.938;15.520;2023-04-01T01:40:01;9.28;96.24
70421;SHT31;57848;51.938;15.520;2023-04-01T01:42:31;9.31;96.35
70421;SHT31;57848;51.938;15.520;2023-04-01T01:44:59;9.36;96.26
70421;SHT31;57848;51.938;15.520;2023-04-01T01:47:26;9.32;96.55
70421;SHT31;57848;51.938;15.520;2023-04-01T01:49:53;9.32;96.65
70421;SHT31;57848;51.938;15.520;2023-04-01T01:52:21;9.34;96.47
70421;SHT31;57848;51.938;15.520;2023-04-01T01:54:52;9.28;96.57
70421;SHT31;57848;51.938;15.520;2023-04-01T01:57:23;9.28;97.17
70421;SHT31;57848;51.938;15.520;2023-04-01T01:59:55;9.36;96.65
70421;SHT31;57848;51.938;15.520;2023-04-01T02:02:26;9.32;96.98
70421;SHT31;57848;51.938;15.520;2023-04-01T02:04:52;9.28;97.13
70421;SHT31;57848;51.938;15.520;2023-04-01T02:07:29;9.24;97.26
70421;SHT31;57848;51.938;15.520;2023-04-01T02:09:55;9.25;97.30
70421;SHT31;57848;51.938;15.520;2023-04-01T02:12:22;9.31;96.47
70421;SHT31;57848;51.938;15.520;2023-04-01T02:15:03;9.31;97.32
70421;SHT31;57848;51.938;15.520;2023-04-01T02:17:32;9.32;97.27
70421;SHT31;57848;51.938;15.520;2023-04-01T02:20:04;9.31;96.91
70421;SHT31;57848;51.938;15.520;2023-04-01T02:22:33;9.32;96.96
70421;SHT31;57848;51.938;15.520;2023-04-01T02:25:04;9.34;97.29
70421;SHT31;57848;51.938;15.520;2023-04-01T02:27:31;9.34;97.00
70421;SHT31;57848;51.938;15.520;2023-04-01T02:29:57;9.31;97.19
70421;SHT31;57848;51.938;15.520;2023-04-01T02:32:24;9.38;97.20
70421;SHT31;57848;51.938;15.520;2023-04-01T02:34:50;9.36;97.30
70421;SHT31;57848;51.938;15.520;2023-04-01T02:37:16;9.31;97.25
70421;SHT31;57848;51.938;15.520;2023-04-01T02:39:42;9.32;97.16
70421;SHT31;57848;51.938;15.520;2023-04-01T02:42:08;9.34;97.38
70421;SHT31;57848;51.938;15.520;2023-04-01T02:44:33;9.31;97.22
70421;SHT31;57848;51.938;15.520;2023-04-01T02:46:59;9.38;97.09
70421;SHT31;57848;51.938;15.520;2023-04-01T02:49:24;9.26;97.20
70421;SHT31;57848;51.938;15.520;2023-04-01T02:51:49;9.31;97.11
70421;SHT31;57848;51.938;15.520;2023-04-01T02:54:17;9.32;97.32
70421;SHT31;57848;51.938;15.520;2023-04-01T02:56:42;9.29;97.30
70421;SHT31;57848;51.938;15.520;2023-04-01T02:59:08;9.31;97.22
70421;SHT31;57848;51.938;15.520;2023-04-01T03:01:33;9.35;97.37
70421;SHT31;57848;51.938;15.520;2023-04-01T03:03:59;9.38;97.12
70421;SHT31;57848;51.938;15.520;2023-04-01T03:06:24;9.32;97.01
70421;SHT31;57848;51.938;15.520;2023-04-01T03:08:50;9.31;97.16
70421;SHT31;57848;51.938;15.520;2023-04-01T03:11:15;9.26;97.44
70421;SHT31;57848;51.938;15.520;2023-04-01T03:13:41;9.28;97.49
70421;SHT31;57848;51.938;15.520;2023-04-01T03:16:06;9.34;97.37
70421;SHT31;57848;51.938;15.520;2023-04-01T03:18:32;9.31;97.43
70421;SHT31;57848;51.938;15.520;2023-04-01T03:21:12;9.28;97.54
70421;SHT31;57848;51.938;15.520;2023-04-01T03:23:37;9.34;97.32
70421;SHT31;57848;51.938;15.520;2023-04-01T03:26:03;9.22;97.68
70421;SHT31;57848;51.938;15.520;2023-04-01T03:28:28;9.29;97.42
70421;SHT31;57848;51.938;15.520;2023-04-01T03:30:53;9.26;98.00
70421;SHT31;57848;51.938;15.520;2023-04-01T03:33:19;9.29;97.85
70421;SHT31;57848;51.938;15.520;2023-04-01T03:35:44;9.28;97.79
70421;SHT31;57848;51.938;15.520;2023-04-01T03:38:10;9.35;97.76
70421;SHT31;57848;51.938;15.520;2023-04-01T03:40:35;9.28;97.68
70421;SHT31;57848;51.938;15.520;2023-04-01T03:43:03;9.24;97.77
70421;SHT31;57848;51.938;15.520;2023-04-01T03:45:31;9.25;97.96
70421;SHT31;57848;51.938;15.520;2023-04-01T03:47:57;9.28;97.65
70421;SHT31;57848;51.938;15.520;2023-04-01T03:50:22;9.31;97.62
70421;SHT31;57848;51.938;15.520;2023-04-01T03:52:48;9.18;97.92
70421;SHT31;57848;51.938;15.520;2023-04-01T03:55:13;9.19;98.02
70421;SHT31;57848;51.938;15.520;2023-04-01T03:57:39;9.22;97.98
70421;SHT31;57848;51.938;15.520;2023-04-01T04:00:14;9.21;97.86
70421;SHT31;57848;51.938;15.520;2023-04-01T04:02:41;9.22;97.97
70421;SHT31;57848;51.938;15.520;2023-04-01T04:05:08;9.22;98.11
70421;SHT31;57848;51.938;15.520;2023-04-01T04:07:34;9.24;98.09
70421;SHT31;57848;51.938;15.520;2023-04-01T04:10:05;9.28;97.86
70421;SHT31;57848;51.938;15.520;2023-04-01T04:12:30;9.28;97.94
70421;SHT31;57848;51.938;15.520;2023-04-01T04:14:56;9.26;97.88
70421;SHT31;57848;51.938;15.520;2023-04-01T04:17:21;9.29;97.83
70421;SHT31;57848;51.938;15.520;2023-04-01T04:19:46;9.21;98.10
70421;SHT31;57848;51.938;15.520;2023-04-01T04:22:12;9.16;98.08
70421;SHT31;57848;51.938;15.520;2023-04-01T04:24:37;9.18;98.22
70421;SHT31;57848;51.938;15.520;2023-04-01T04:27:07;9.15;98.25
70421;SHT31;57848;51.938;15.520;2023-04-01T04:29:40;9.14;98.43
70421;SHT31;57848;51.938;15.520;2023-04-01T04:32:05;9.15;98.50
70421;SHT31;57848;51.938;15.520;2023-04-01T04:34:31;9.12;98.63
70421;SHT31;57848;51.938;15.520;2023-04-01T04:36:57;9.07;98.84
70421;SHT31;57848;51.938;15.520;2023-04-01T04:39:27;9.12;98.77
70421;SHT31;57848;51.938;15.520;2023-04-01T04:41:52;9.16;98.61
70421;SHT31;57848;51.938;15.520;2023-04-01T04:44:18;9.12;98.78
70421;SHT31;57848;51.938;15.520;2023-04-01T04:46:43;9.19;98.28
70421;SHT31;57848;51.938;15.520;2023-04-01T04:49:13;9.21;98.15
70421;SHT31;57848;51.938;15.520;2023-04-01T04:51:39;9.18;98.34
70421;SHT31;57848;51.938;15.520;2023-04-01T04:54:05;9.11;98.59
70421;SHT31;57848;51.938;15.520;2023-04-01T04:57:03;9.15;98.59
70421;SHT31;57848;51.938;15.520;2023-04-01T04:59:33;9.15;98.43
70421;SHT31;57848;51.938;15.520;2023-04-01T05:02:06;9.14;98.58
70421;SHT31;57848;51.938;15.520;2023-04-01T05:04:35;9.22;98.59
70421;SHT31;57848;51.938;15.520;2023-04-01T05:07:02;9.18;98.23
70421;SHT31;57848;51.938;15.520;2023-04-01T05:09:28;9.19;98.46
70421;SHT31;57848;51.938;15.520;2023-04-01T05:11:53;9.19;98.48
70421;SHT31;57848;51.938;15.520;2023-04-01T05:14:20;9.25;98.42
70421;SHT31;57848;51.938;15.520;2023-04-01T05:16:56;9.19;98.32
70421;SHT31;57848;51.938;15.520;2023-04-01T05:19:22;9.18;98.71
70421;SHT31;57848;51.938;15.520;2023-04-01T05:21:47;9.24;98.50
70421;SHT31;57848;51.938;15.520;2023-04-01T05:24:12;9.26;98.33
70421;SHT31;57848;51.938;15.520;2023-04-01T05:26:38;9.29;98.18
70421;SHT31;57848;51.938;15.520;2023-04-01T05:29:04;9.28;98.35
70421;SHT31;57848;51.938;15.520;2023-04-01T05:31:31;9.26;98.20
70421;SHT31;57848;51.938;15.520;2023-04-01T05:33:57;9.32;98.25
70421;SHT31;57848;51.938;15.520;2023-04-01T05:36:22;9.32;98.17
70421;SHT31;57848;51.938;15.520;2023-04-01T05:38:48;9.35;98.06
70421;SHT31;57848;51.938;15.520;2023-04-01T05:41:16;9.35;98.08
70421;SHT31;57848;51.938;15.520;2023-04-01T05:43:44;9.40;97.93
70421;SHT31;57848;51.938;15.520;2023-04-01T05:46:30;9.34;97.46
70421;SHT31;57848;51.938;15.520;2023-04-01T05:49:03;9.32;97.72
70421;SHT31;57848;51.938;15.520;2023-04-01T05:51:29;9.34;97.79
70421;SHT31;57848;51.938;15.520;2023-04-01T05:53:54;9.35;98.14
70421;SHT31;57848;51.938;15.520;2023-04-01T05:56:19;9.45;97.49
70421;SHT31;57848;51.938;15.520;2023-04-01T05:58:51;9.39;97.42
70421;SHT31;57848;51.938;15.520;2023-04-01T06:01:17;9.39;97.90
70421;SHT31;57848;51.938;15.520;2023-04-01T06:03:44;9.39;97.68
70421;SHT31;57848;51.938;15.520;2023-04-01T06:06:15;9.45;97.63
70421;SHT31;57848;51.938;15.520;2023-04-01T06:08:42;9.45;97.72
70421;SHT31;57848;51.938;15.520;2023-04-01T06:13:49;9.49;97.48
70421;SHT31;57848;51.938;15.520;2023-04-01T06:32:53;9.47;97.44
70421;SHT31;57848;51.938;15.520;2023-04-01T06:43:53;9.50;97.54
70421;SHT31;57848;51.938;15.520;2023-04-01T06:46:58;9.55;97.62
70421;SHT31;57848;51.938;15.520;2023-04-01T06:55:50;9.53;97.66
70421;SHT31;57848;51.938;15.520;2023-04-01T06:58:46;9.50;97.90
70421;SHT31;57848;51.938;15.520;2023-04-01T07:01:18;9.53;97.84
70421;SHT31;57848;51.938;15.520;2023-04-01T07:04:11;9.56;97.67
70421;SHT31;57848;51.938;15.520;2023-04-01T07:06:50;9.59;97.89
70421;SHT31;57848;51.938;15.520;2023-04-01T07:09:24;9.62;97.42
70421;SHT31;57848;51.938;15.520;2023-04-01T07:12:21;9.66;97.13
70421;SHT31;57848;51.938;15.520;2023-04-01T07:15:21;9.67;97.10
70421;SHT31;57848;51.938;15.520;2023-04-01T07:17:55;9.70;97.27
70421;SHT31;57848;51.938;15.520;2023-04-01T07:20:32;9.72;97.44
70421;SHT31;57848;51.938;15.520;2023-04-01T07:23:05;9.77;97.49
70421;SHT31;57848;51.938;15.520;2023-04-01T07:25:55;9.74;97.14
70421;SHT31;57848;51.938;15.520;2023-04-01T07:28:42;9.89;97.10
70421;SHT31;57848;51.938;15.520;2023-04-01T07:31:48;9.98;96.60
70421;SHT31;57848;51.938;15.520;2023-04-01T07:34:49;9.97;96.47
70421;SHT31;57848;51.938;15.520;2023-04-01T07:37:23;9.98;96.55
70421;SHT31;57848;51.938;15.520;2023-04-01T07:45:43;10.00;96.36
70421;SHT31;57848;51.938;15.520;2023-04-01T07:48:21;9.98;96.40
70421;SHT31;57848;51.938;15.520;2023-04-01T07:51:17;10.01;96.17
70421;SHT31;57848;51.938;15.520;2023-04-01T07:54:08;10.03;96.48
70421;SHT31;57848;51.938;15.520;2023-04-01T07:59:17;10.08;96.34
70421;SHT31;57848;51.938;15.520;2023-04-01T08:05:14;10.14;96.54
70421;SHT31;57848;51.938;15.520;2023-04-01T08:10:57;10.11;95.50
70421;SHT31;57848;51.938;15.520;2023-04-01T08:13:57;10.25;95.91
70421;SHT31;57848;51.938;15.520;2023-04-01T08:17:16;10.32;96.49
70421;SHT31;57848;51.938;15.520;2023-04-01T08:22:41;10.44;95.09
70421;SHT31;57848;51.938;15.520;2023-04-01T08:25:26;10.37;95.21
70421;SHT31;57848;51.938;15.520;2023-04-01T08:27:59;10.40;95.53
70421;SHT31;57848;51.938;15.520;2023-04-01T08:30:29;10.41;95.39
70421;SHT31;57848;51.938;15.520;2023-04-01T08:33:12;10.32;95.77
70421;SHT31;57848;51.938;15.520;2023-04-01T08:36:03;10.34;96.17
70421;SHT31;57848;51.938;15.520;2023-04-01T08:38:42;10.40;95.91
70421;SHT31;57848;51.938;15.520;2023-04-01T08:53:21;11.12;94.95
70421;SHT31;57848;51.938;15.520;2023-04-01T09:02:14;11.54;92.18
70421;SHT31;57848;51.938;15.520;2023-04-01T09:05:17;11.72;91.56
70421;SHT31;57848;51.938;15.520;2023-04-01T09:10:36;11.70;90.83
70421;SHT31;57848;51.938;15.520;2023-04-01T09:13:51;11.60;90.94
70421;SHT31;57848;51.938;15.520;2023-04-01T09:19:16;11.50;91.01
70421;SHT31;57848;51.938;15.520;2023-04-01T09:24:25;11.58;91.33
70421;SHT31;57848;51.938;15.520;2023-04-01T09:27:03;11.48;92.70
70421;SHT31;57848;51.938;15.520;2023-04-01T09:40:34;11.68;93.18
70421;SHT31;57848;51.938;15.520;2023-04-01T09:45:58;12.06;90.04
70421;SHT31;57848;51.938;15.520;2023-04-01T09:54:37;12.53;88.32
70421;SHT31;57848;51.938;15.520;2023-04-01T10:16:46;12.02;89.12
70421;SHT31;57848;51.938;15.520;2023-04-01T10:20:00;11.96;89.66
70421;SHT31;57848;51.938;15.520;2023-04-01T10:22:30;12.06;90.32
70421;SHT31;57848;51.938;15.520;2023-04-01T10:29:06;12.09;91.76
70421;SHT31;57848;51.938;15.520;2023-04-01T10:34:49;12.01;91.53
70421;SHT31;57848;51.938;15.520;2023-04-01T10:40:31;11.82;90.80
70421;SHT31;57848;51.938;15.520;2023-04-01T10:46:51;12.13;92.06
70421;SHT31;57848;51.938;15.520;2023-04-01T10:56:23;12.34;88.39
70421;SHT31;57848;51.938;15.520;2023-04-01T11:02:48;12.59;89.94
70421;SHT31;57848;51.938;15.520;2023-04-01T11:06:56;12.57;89.76
70421;SHT31;57848;51.938;15.520;2023-04-01T11:20:31;12.19;88.44
70421;SHT31;57848;51.938;15.520;2023-04-01T11:26:04;12.44;90.21
70421;SHT31;57848;51.938;15.520;2023-04-01T11:32:20;12.29;90.11
70421;SHT31;57848;51.938;15.520;2023-04-01T11:44:21;12.36;87.60
70421;SHT31;57848;51.938;15.520;2023-04-01T11:50:00;12.43;88.97
70421;SHT31;57848;51.938;15.520;2023-04-01T11:53:10;12.28;88.44
70421;SHT31;57848;51.938;15.520;2023-04-01T11:55:47;12.30;88.38
70421;SHT31;57848;51.938;15.520;2023-04-01T11:58:36;12.29;88.63
70421;SHT31;57848;51.938;15.520;2023-04-01T12:01:13;12.26;88.45
70421;SHT31;57848;51.938;15.520;2023-04-01T12:11:38;12.02;90.87
70421;SHT31;57848;51.938;15.520;2023-04-01T12:14:34;11.88;91.14
70421;SHT31;57848;51.938;15.520;2023-04-01T12:17:36;11.70;91.68
70421;SHT31;57848;51.938;15.520;2023-04-01T12:26:04;11.74;91.87
70421;SHT31;57848;51.938;15.520;2023-04-01T12:28:55;11.84;91.44
70421;SHT31;57848;51.938;15.520;2023-04-01T12:31:47;11.81;92.21
70421;SHT31;57848;51.938;15.520;2023-04-01T12:37:20;11.95;91.71
70421;SHT31;57848;51.938;15.520;2023-04-01T12:43:04;11.95;90.55
70421;SHT31;57848;51.938;15.520;2023-04-01T12:45:40;11.79;90.71
70421;SHT31;57848;51.938;15.520;2023-04-01T13:05:46;11.70;92.95
70421;SHT31;57848;51.938;15.520;2023-04-01T13:11:01;11.68;92.34
70421;SHT31;57848;51.938;15.520;2023-04-01T13:13:39;11.72;92.59
70421;SHT31;57848;51.938;15.520;2023-04-01T13:16:20;11.67;92.59
70421;SHT31;57848;51.938;15.520;2023-04-01T13:19:03;11.64;92.57
70421;SHT31;57848;51.938;15.520;2023-04-01T13:21:50;11.61;92.69
70421;SHT31;57848;51.938;15.520;2023-04-01T13:24:33;11.54;92.90
70421;SHT31;57848;51.938;15.520;2023-04-01T13:27:17;11.45;93.16
70421;SHT31;57848;51.938;15.520;2023-04-01T13:40:46;11.37;92.75
70421;SHT31;57848;51.938;15.520;2023-04-01T13:43:20;11.28;92.54
70421;SHT31;57848;51.938;15.520;2023-04-01T13:48:32;11.22;93.30
70421;SHT31;57848;51.938;15.520;2023-04-01T13:51:16;11.27;93.60
70421;SHT31;57848;51.938;15.520;2023-04-01T13:56:44;11.23;93.01
70421;SHT31;57848;51.938;15.520;2023-04-01T13:59:29;11.19;93.32
70421;SHT31;57848;51.938;15.520;2023-04-01T14:02:24;11.13;92.70
70421;SHT31;57848;51.938;15.520;2023-04-01T14:05:15;10.95;92.74
70421;SHT31;57848;51.938;15.520;2023-04-01T14:30:42;10.41;94.68
70421;SHT31;57848;51.938;15.520;2023-04-01T14:50:46;10.27;94.43
70421;SHT31;57848;51.938;15.520;2023-04-01T14:53:29;10.25;94.69
70421;SHT31;57848;51.938;15.520;2023-04-01T14:55:58;10.25;94.74
70421;SHT31;57848;51.938;15.520;2023-04-01T14:58:38;10.24;94.74
70421;SHT31;57848;51.938;15.520;2023-04-01T15:01:26;10.27;94.48
70421;SHT31;57848;51.938;15.520;2023-04-01T15:04:28;10.28;94.73
70421;SHT31;57848;51.938;15.520;2023-04-01T15:07:05;10.24;94.69
70421;SHT31;57848;51.938;15.520;2023-04-01T15:09:57;10.20;94.39
70421;SHT31;57848;51.938;15.520;2023-04-01T15:12:32;10.15;94.35
70421;SHT31;57848;51.938;15.520;2023-04-01T15:15:20;10.14;94.89
70421;SHT31;57848;51.938;15.520;2023-04-01T15:18:10;10.21;94.56
70421;SHT31;57848;51.938;15.520;2023-04-01T15:20:45;10.11;94.33
70421;SHT31;57848;51.938;15.520;2023-04-01T15:23:31;10.00;94.71
70421;SHT31;57848;51.938;15.520;2023-04-01T15:31:50;9.97;94.74
70421;SHT31;57848;51.938;15.520;2023-04-01T15:37:39;9.89;94.92
70421;SHT31;57848;51.938;15.520;2023-04-01T15:40:46;9.84;94.74
70421;SHT31;57848;51.938;15.520;2023-04-01T15:54:02;9.80;95.10
70421;SHT31;57848;51.938;15.520;2023-04-01T15:57:05;9.77;95.10
70421;SHT31;57848;51.938;15.520;2023-04-01T16:02:48;9.67;95.21
70421;SHT31;57848;51.938;15.520;2023-04-01T16:13:15;9.50;95.28
70421;SHT31;57848;51.938;15.520;2023-04-01T16:16:05;9.47;95.56
70421;SHT31;57848;51.938;15.520;2023-04-01T16:24:13;9.46;95.79
70421;SHT31;57848;51.938;15.520;2023-04-01T16:26:49;9.36;96.34
70421;SHT31;57848;51.938;15.520;2023-04-01T16:31:52;9.39;96.09
70421;SHT31;57848;51.938;15.520;2023-04-01T16:34:31;9.31;95.95
70421;SHT31;57848;51.938;15.520;2023-04-01T16:37:07;9.28;95.90
70421;SHT31;57848;51.938;15.520;2023-04-01T16:40:09;9.25;96.23
70421;SHT31;57848;51.938;15.520;2023-04-01T16:42:53;9.29;96.05
70421;SHT31;57848;51.938;15.520;2023-04-01T16:45:41;9.24;95.50
70421;SHT31;57848;51.938;15.520;2023-04-01T16:48:27;9.28;95.37
70421;SHT31;57848;51.938;15.520;2023-04-01T16:51:02;9.22;95.41
70421;SHT31;57848;51.938;15.520;2023-04-01T16:53:41;9.14;95.63
70421;SHT31;57848;51.938;15.520;2023-04-01T16:56:13;9.01;95.53
70421;SHT31;57848;51.938;15.520;2023-04-01T16:58:53;8.94;95.64
70421;SHT31;57848;51.938;15.520;2023-04-01T17:01:24;8.92;95.68
70421;SHT31;57848;51.938;15.520;2023-04-01T17:04:07;8.95;95.98
70421;SHT31;57848;51.938;15.520;2023-04-01T17:06:53;9.00;96.31
70421;SHT31;57848;51.938;15.520;2023-04-01T17:09:49;8.91;95.80
70421;SHT31;57848;51.938;15.520;2023-04-01T17:12:30;8.97;95.83
70421;SHT31;57848;51.938;15.520;2023-04-01T17:18:20;9.01;95.75
70421;SHT31;57848;51.938;15.520;2023-04-01T17:20:56;8.97;95.74
70421;SHT31;57848;51.938;15.520;2023-04-01T17:23:38;9.01;95.63
70421;SHT31;57848;51.938;15.520;2023-04-01T17:26:14;8.94;95.72
70421;SHT31;57848;51.938;15.520;2023-04-01T17:34:21;8.87;95.93
70421;SHT31;57848;51.938;15.520;2023-04-01T17:42:14;8.71;95.55
70421;SHT31;57848;51.938;15.520;2023-04-01T17:44:53;8.73;95.53
70421;SHT31;57848;51.938;15.520;2023-04-01T17:47:32;8.70;95.52
70421;SHT31;57848;51.938;15.520;2023-04-01T17:52:52;8.61;95.51
70421;SHT31;57848;51.938;15.520;2023-04-01T17:55:40;8.64;95.45
70421;SHT31;57848;51.938;15.520;2023-04-01T17:58:17;8.60;95.57
70421;SHT31;57848;51.938;15.520;2023-04-01T18:04:06;8.50;95.66
70421;SHT31;57848;51.938;15.520;2023-04-01T18:06:55;8.52;95.55
70421;SHT31;57848;51.938;15.520;2023-04-01T18:15:37;8.53;95.94
70421;SHT31;57848;51.938;15.520;2023-04-01T18:18:44;8.49;95.84
70421;SHT31;57848;51.938;15.520;2023-04-01T18:21:32;8.50;95.81
70421;SHT31;57848;51.938;15.520;2023-04-01T18:24:13;8.47;95.42
70421;SHT31;57848;51.938;15.520;2023-04-01T18:26:44;8.47;95.88
70421;SHT31;57848;51.938;15.520;2023-04-01T18:34:52;8.44;95.52
70421;SHT31;57848;51.938;15.520;2023-04-01T18:37:28;8.39;95.41
70421;SHT31;57848;51.938;15.520;2023-04-01T18:40:10;8.30;95.50
70421;SHT31;57848;51.938;15.520;2023-04-01T18:42:45;8.29;95.97
70421;SHT31;57848;51.938;15.520;2023-04-01T18:45:17;8.26;95.72
70421;SHT31;57848;51.938;15.520;2023-04-01T18:50:57;8.23;95.64
70421;SHT31;57848;51.938;15.520;2023-04-01T18:53:42;8.21;95.42
70421;SHT31;57848;51.938;15.520;2023-04-01T18:56:33;8.13;95.88
70421;SHT31;57848;51.938;15.520;2023-04-01T18:59:26;8.16;95.57
70421;SHT31;57848;51.938;15.520;2023-04-01T19:04:56;8.07;95.69
70421;SHT31;57848;51.938;15.520;2023-04-01T19:07:42;8.05;95.28
70421;SHT31;57848;51.938;15.520;2023-04-01T19:10:21;7.98;95.57
70421;SHT31;57848;51.938;15.520;2023-04-01T19:21:12;7.85;95.17
70421;SHT31;57848;51.938;15.520;2023-04-01T19:26:48;7.75;95.42
70421;SHT31;57848;51.938;15.520;2023-04-01T19:29:58;7.71;95.51
70421;SHT31;57848;51.938;15.520;2023-04-01T19:32:39;7.74;95.38
70421;SHT31;57848;51.938;15.520;2023-04-01T19:40:43;7.74;94.69
70421;SHT31;57848;51.938;15.520;2023-04-01T19:43:30;7.57;94.62
70421;SHT31;57848;51.938;15.520;2023-04-01T19:46:14;7.48;94.51
70421;SHT31;57848;51.938;15.520;2023-04-01T19:51:39;7.38;94.10
70421;SHT31;57848;51.938;15.520;2023-04-01T20:02:29;7.09;94.75
70421;SHT31;57848;51.938;15.520;2023-04-01T20:04:56;7.02;94.89
70421;SHT31;57848;51.938;15.520;2023-04-01T20:07:27;7.05;95.01
70421;SHT31;57848;51.938;15.520;2023-04-01T20:10:09;7.06;95.02
70421;SHT31;57848;51.938;15.520;2023-04-01T20:15:40;6.93;95.07
70421;SHT31;57848;51.938;15.520;2023-04-01T20:18:15;6.93;94.79
70421;SHT31;57848;51.938;15.520;2023-04-01T20:20:58;6.86;95.05
70421;SHT31;57848;51.938;15.520;2023-04-01T20:23:49;6.79;95.01
70421;SHT31;57848;51.938;15.520;2023-04-01T20:26:21;6.84;95.03
70421;SHT31;57848;51.938;15.520;2023-04-01T20:29:18;6.79;94.97
70421;SHT31;57848;51.938;15.520;2023-04-01T20:40:32;6.65;94.71
70421;SHT31;57848;51.938;15.520;2023-04-01T20:43:20;6.58;94.86
70421;SHT31;57848;51.938;15.520;2023-04-01T20:46:04;6.64;94.91
70421;SHT31;57848;51.938;15.520;2023-04-01T20:51:35;6.49;94.83
70421;SHT31;57848;51.938;15.520;2023-04-01T20:57:06;6.51;94.76
70421;SHT31;57848;51.938;15.520;2023-04-01T20:59:50;6.42;94.32
70421;SHT31;57848;51.938;15.520;2023-04-01T21:02:39;6.46;94.66
70421;SHT31;57848;51.938;15.520;2023-04-01T21:07:50;6.35;94.00
70421;SHT31;57848;51.938;15.520;2023-04-01T21:10:41;6.31;95.00
70421;SHT31;57848;51.938;15.520;2023-04-01T21:19:12;6.18;94.34
70421;SHT31;57848;51.938;15.520;2023-04-01T21:21:51;6.10;94.45
70421;SHT31;57848;51.938;15.520;2023-04-01T21:24:51;5.99;94.39
70421;SHT31;57848;51.938;15.520;2023-04-01T21:27:42;5.96;94.16
70421;SHT31;57848;51.938;15.520;2023-04-01T21:30:23;5.90;94.70
70421;SHT31;57848;51.938;15.520;2023-04-01T21:39:16;5.93;94.56
70421;SHT31;57848;51.938;15.520;2023-04-01T21:41:29;5.93;94.80
70421;SHT31;57848;51.938;15.520;2023-04-01T21:44:32;5.93;95.16
70421;SHT31;57848;51.938;15.520;2023-04-01T22:01:04;5.72;95.10
70421;SHT31;57848;51.938;15.520;2023-04-01T22:06:47;5.70;94.49
70421;SHT31;57848;51.938;15.520;2023-04-01T22:09:39;5.70;94.63
70421;SHT31;57848;51.938;15.520;2023-04-01T22:12:13;5.72;94.81
70421;SHT31;57848;51.938;15.520;2023-04-01T22:15:01;5.62;94.27
70421;SHT31;57848;51.938;15.520;2023-04-01T22:20:24;5.60;94.42
70421;SHT31;57848;51.938;15.520;2023-04-01T22:23:43;5.58;94.47
70421;SHT31;57848;51.938;15.520;2023-04-01T22:25:56;5.59;94.34
70421;SHT31;57848;51.938;15.520;2023-04-01T22:31:06;5.55;94.71
70421;SHT31;57848;51.938;15.520;2023-04-01T22:36:32;5.42;94.08
70421;SHT31;57848;51.938;15.520;2023-04-01T22:39:17;5.34;94.82
70421;SHT31;57848;51.938;15.520;2023-04-01T22:44:58;5.20;94.17
70421;SHT31;57848;51.938;15.520;2023-04-01T22:50:07;5.14;94.61
70421;SHT31;57848;51.938;15.520;2023-04-01T22:52:45;5.20;95.16
70421;SHT31;57848;51.938;15.520;2023-04-01T22:55:24;5.23;94.98
70421;SHT31;57848;51.938;15.520;2023-04-01T22:57:59;5.23;95.13
70421;SHT31;57848;51.938;15.520;2023-04-01T23:00:33;5.24;95.25
70421;SHT31;57848;51.938;15.520;2023-04-01T23:05:35;5.13;94.44
70421;SHT31;57848;51.938;15.520;2023-04-01T23:10:52;5.08;94.32
70421;SHT31;57848;51.938;15.520;2023-04-01T23:13:24;5.05;94.50
70421;SHT31;57848;51.938;15.520;2023-04-01T23:15:53;5.05;93.99
70421;SHT31;57848;51.938;15.520;2023-04-01T23:18:35;5.00;93.97
70421;SHT31;57848;51.938;15.520;2023-04-01T23:21:21;4.93;93.75
70421;SHT31;57848;51.938;15.520;2023-04-01T23:24:00;4.97;94.07
70421;SHT31;57848;51.938;15.520;2023-04-01T23:26:55;5.01;94.00
70421;SHT31;57848;51.938;15.520;2023-04-01T23:29:23;4.93;94.04
70421;SHT31;57848;51.938;15.520;2023-04-01T23:32:01;4.94;93.91
70421;SHT31;57848;51.938;15.520;2023-04-01T23:34:29;4.83;93.53
70421;SHT31;57848;51.938;15.520;2023-04-01T23:36:59;4.74;94.25
70421;SHT31;57848;51.938;15.520;2023-04-01T23:39:43;4.83;94.78
70421;SHT31;57848;51.938;15.520;2023-04-01T23:44:41;4.80;93.86
70421;SHT31;57848;51.938;15.520;2023-04-01T23:47:14;4.74;93.76
70421;SHT31;57848;51.938;15.520;2023-04-01T23:49:47;4.77;93.80
70421;SHT31;57848;51.938;15.520;2023-04-01T23:52:20;4.74;93.94
70421;SHT31;57848;51.938;15.520;2023-04-01T23:54:52;4.80;93.74
70421;SHT31;57848;51.938;15.520;2023-04-01T23:57:21;4.76;93.89
